createdAt,value
2018-02-21T00:01:05.720Z,0
2018-02-21T00:02:14.660Z,0
2018-02-21T00:03:24.161Z,0
2018-02-21T00:04:33.945Z,0
2018-02-21T00:05:42.685Z,0
2018-02-21T00:06:51.687Z,0
2018-02-21T00:08:00.654Z,0
2018-02-21T00:09:09.855Z,0
2018-02-21T00:10:19.071Z,0
2018-02-21T00:11:28.296Z,0
2018-02-21T00:12:37.494Z,0
2018-02-21T00:13:46.775Z,0
2018-02-21T00:14:56.327Z,0
2018-02-21T00:16:05.859Z,0
2018-02-21T00:17:15.138Z,0
2018-02-21T00:18:24.108Z,0
2018-02-21T00:19:33.049Z,0
2018-02-21T00:20:42.016Z,0
2018-02-21T00:21:51.530Z,0
2018-02-21T00:23:00.795Z,0
2018-02-21T00:24:09.781Z,0
2018-02-21T00:25:19.261Z,0
2018-02-21T00:26:28.207Z,0
2018-02-21T00:27:37.152Z,0
2018-02-21T00:28:46.115Z,0
2018-02-21T00:29:54.972Z,0
2018-02-21T00:31:04.211Z,0
2018-02-21T00:32:13.181Z,0
2018-02-21T00:33:22.665Z,0
2018-02-21T00:34:31.880Z,0
2018-02-21T00:35:41.175Z,0
2018-02-21T00:36:49.886Z,0
2018-02-21T00:37:58.587Z,0
2018-02-21T00:39:07.909Z,0
2018-02-21T00:40:16.914Z,0
2018-02-21T00:41:25.665Z,0
2018-02-21T00:42:34.637Z,0
2018-02-21T00:43:43.630Z,0
2018-02-21T00:44:52.583Z,0
2018-02-21T00:46:01.336Z,0
2018-02-21T00:47:10.286Z,0
2018-02-21T00:48:19.777Z,0
2018-02-21T00:49:28.738Z,0
2018-02-21T00:50:37.729Z,0
2018-02-21T00:51:47.229Z,0
2018-02-21T00:52:56.444Z,0
2018-02-21T00:54:05.682Z,0
2018-02-21T00:55:14.648Z,0
2018-02-21T00:56:23.853Z,0
2018-02-21T00:57:33.046Z,0
2018-02-21T00:58:42.033Z,0
2018-02-21T00:59:51.048Z,0
2018-02-21T01:00:59.995Z,0
2018-02-21T01:02:09.204Z,0
2018-02-21T01:03:18.466Z,0
2018-02-21T01:04:27.686Z,0
2018-02-21T01:05:36.942Z,0
2018-02-21T01:06:46.897Z,0
2018-02-21T01:07:56.439Z,0
2018-02-21T01:09:05.724Z,0
2018-02-21T01:10:14.652Z,0
2018-02-21T01:11:24.413Z,0
2018-02-21T01:12:33.111Z,0
2018-02-21T01:13:42.881Z,0
2018-02-21T01:14:51.888Z,0
2018-02-21T01:16:01.664Z,0
2018-02-21T01:17:10.959Z,0
2018-02-21T01:18:20.457Z,0
2018-02-21T01:19:29.430Z,0
2018-02-21T01:20:38.408Z,0
2018-02-21T01:21:47.392Z,0
2018-02-21T01:22:56.646Z,0
2018-02-21T01:24:05.613Z,0
2018-02-21T01:25:14.838Z,0
2018-02-21T01:26:23.615Z,0
2018-02-21T01:27:32.862Z,0
2018-02-21T01:28:42.627Z,0
2018-02-21T01:29:52.156Z,0
2018-02-21T01:31:00.879Z,0
2018-02-21T01:32:10.399Z,0
2018-02-21T01:33:19.950Z,0
2018-02-21T01:34:29.169Z,0
2018-02-21T01:35:38.670Z,0
2018-02-21T01:36:47.872Z,0
2018-02-21T01:37:56.820Z,0
2018-02-21T01:39:06.064Z,0
2018-02-21T01:40:15.616Z,0
2018-02-21T01:41:24.818Z,0
2018-02-21T01:42:34.040Z,0
2018-02-21T01:43:42.715Z,0
2018-02-21T01:44:51.713Z,0
2018-02-21T01:46:00.970Z,0
2018-02-21T01:47:09.907Z,0
2018-02-21T01:48:18.874Z,0
2018-02-21T01:49:28.112Z,0
2018-02-21T01:50:37.077Z,0
2018-02-21T01:51:46.576Z,0
2018-02-21T01:52:55.817Z,0
2018-02-21T01:54:05.312Z,0
2018-02-21T01:55:14.268Z,0
2018-02-21T01:56:22.972Z,0
2018-02-21T01:57:32.438Z,0
2018-02-21T01:58:42.004Z,0
2018-02-21T01:59:51.541Z,0
2018-02-21T02:01:00.788Z,0
2018-02-21T02:02:09.769Z,0
2018-02-21T02:03:18.748Z,0
2018-02-21T02:04:27.474Z,0
2018-02-21T02:05:36.682Z,0
2018-02-21T02:06:45.638Z,0
2018-02-21T02:07:54.875Z,0
2018-02-21T02:09:03.843Z,0
2018-02-21T02:10:12.826Z,0
2018-02-21T02:11:21.596Z,0
2018-02-21T02:12:30.625Z,0
2018-02-21T02:13:39.591Z,0
2018-02-21T02:14:49.375Z,0
2018-02-21T02:15:58.049Z,0
2018-02-21T02:17:08.127Z,0
2018-02-21T02:18:17.077Z,0
2018-02-21T02:19:26.353Z,0
2018-02-21T02:20:35.592Z,0
2018-02-21T02:21:45.159Z,0
2018-02-21T02:22:53.888Z,0
2018-02-21T02:24:02.829Z,0
2018-02-21T02:25:12.067Z,0
2018-02-21T02:26:21.306Z,0
2018-02-21T02:27:30.514Z,0
2018-02-21T02:28:39.473Z,0
2018-02-21T02:29:49.006Z,0
2018-02-21T02:30:57.977Z,0
2018-02-21T02:32:07.283Z,0
2018-02-21T02:33:16.033Z,0
2018-02-21T02:34:25.257Z,0
2018-02-21T02:35:34.247Z,0
2018-02-21T02:36:43.484Z,0
2018-02-21T02:37:52.706Z,0
2018-02-21T02:39:02.464Z,0
2018-02-21T02:40:11.781Z,0
2018-02-21T02:41:21.055Z,0
2018-02-21T02:42:29.764Z,0
2018-02-21T02:43:39.062Z,0
2018-02-21T02:44:48.551Z,0
2018-02-21T02:45:57.279Z,0
2018-02-21T02:47:06.289Z,0
2018-02-21T02:48:15.236Z,0
2018-02-21T02:49:23.940Z,0
2018-02-21T02:50:33.702Z,0
2018-02-21T02:51:43.207Z,0
2018-02-21T02:52:52.476Z,0
2018-02-21T02:54:02.208Z,0
2018-02-21T02:55:11.491Z,0
2018-02-21T02:56:21.294Z,0
2018-02-21T02:57:30.245Z,0
2018-02-21T02:58:38.944Z,0
2018-02-21T02:59:48.432Z,0
2018-02-21T03:00:57.678Z,0
2018-02-21T03:02:06.666Z,0
2018-02-21T03:03:16.202Z,0
2018-02-21T03:04:25.221Z,0
2018-02-21T03:05:34.516Z,0
2018-02-21T03:06:43.823Z,0
2018-02-21T03:07:53.061Z,0
2018-02-21T03:09:02.868Z,0
2018-02-21T03:10:11.591Z,0
2018-02-21T03:11:20.861Z,0
2018-02-21T03:12:30.171Z,0
2018-02-21T03:13:39.177Z,0
2018-02-21T03:14:48.186Z,0
2018-02-21T03:15:57.136Z,0
2018-02-21T03:17:06.386Z,0
2018-02-21T03:18:15.881Z,0
2018-02-21T03:19:24.589Z,0
2018-02-21T03:20:33.314Z,0
2018-02-21T03:21:42.028Z,0
2018-02-21T03:22:51.074Z,0
2018-02-21T03:23:59.769Z,0
2018-02-21T03:25:09.020Z,0
2018-02-21T03:26:17.996Z,0
2018-02-21T03:27:27.016Z,0
2018-02-21T03:28:35.996Z,0
2018-02-21T03:29:44.688Z,0
2018-02-21T03:30:53.924Z,0
2018-02-21T03:32:02.887Z,0
2018-02-21T03:33:12.140Z,0
2018-02-21T03:34:21.086Z,0
2018-02-21T03:35:29.775Z,0
2018-02-21T03:36:38.757Z,0
2018-02-21T03:37:47.779Z,0
2018-02-21T03:38:56.765Z,0
2018-02-21T03:40:05.720Z,0
2018-02-21T03:41:14.666Z,0
2018-02-21T03:42:23.910Z,0
2018-02-21T03:43:33.154Z,0
2018-02-21T03:44:42.640Z,0
2018-02-21T03:45:52.134Z,0
2018-02-21T03:47:00.834Z,0
2018-02-21T03:48:10.330Z,0
2018-02-21T03:49:19.077Z,0
2018-02-21T03:50:28.091Z,0
2018-02-21T03:51:36.767Z,0
2018-02-21T03:52:45.509Z,0
2018-02-21T03:53:54.482Z,0
2018-02-21T03:55:03.744Z,0
2018-02-21T03:56:12.464Z,0
2018-02-21T03:57:21.475Z,0
2018-02-21T03:58:30.184Z,0
2018-02-21T03:59:39.512Z,0
2018-02-21T04:00:48.747Z,0
2018-02-21T04:01:57.442Z,0
2018-02-21T04:03:06.680Z,0
2018-02-21T04:04:15.955Z,0
2018-02-21T04:05:24.939Z,0
2018-02-21T04:06:33.900Z,0
2018-02-21T04:07:43.466Z,0
2018-02-21T04:08:52.164Z,0
2018-02-21T04:10:01.156Z,0
2018-02-21T04:11:10.434Z,0
2018-02-21T04:12:19.905Z,0
2018-02-21T04:13:29.405Z,0
2018-02-21T04:14:38.256Z,0
2018-02-21T04:15:47.075Z,0
2018-02-21T04:16:56.062Z,0
2018-02-21T04:18:05.042Z,0
2018-02-21T04:19:14.495Z,0
2018-02-21T04:20:23.248Z,0
2018-02-21T04:21:31.984Z,0
2018-02-21T04:22:40.981Z,0
2018-02-21T04:23:49.930Z,0
2018-02-21T04:24:58.877Z,0
2018-02-21T04:26:08.413Z,0
2018-02-21T04:27:17.377Z,0
2018-02-21T04:28:26.073Z,0
2018-02-21T04:29:35.021Z,0
2018-02-21T04:30:43.770Z,0
2018-02-21T04:31:52.752Z,0
2018-02-21T04:33:01.463Z,0
2018-02-21T04:34:10.414Z,0
2018-02-21T04:35:19.656Z,0
2018-02-21T04:36:28.867Z,0
2018-02-21T04:37:38.611Z,0
2018-02-21T04:38:48.346Z,0
2018-02-21T04:39:57.290Z,0
2018-02-21T04:41:05.960Z,0
2018-02-21T04:42:14.903Z,0
2018-02-21T04:43:23.850Z,0
2018-02-21T04:44:32.825Z,0
2018-02-21T04:45:42.028Z,0
2018-02-21T04:46:51.507Z,0
2018-02-21T04:48:00.808Z,0
2018-02-21T04:49:10.545Z,0
2018-02-21T04:50:19.506Z,0
2018-02-21T04:51:28.215Z,0
2018-02-21T04:52:36.956Z,0
2018-02-21T04:53:45.651Z,0
2018-02-21T04:54:54.917Z,0
2018-02-21T04:56:04.201Z,0
2018-02-21T04:57:12.994Z,0
2018-02-21T04:58:22.026Z,0
2018-02-21T04:59:30.778Z,0
2018-02-21T05:00:40.597Z,0
2018-02-21T05:01:49.893Z,0
2018-02-21T05:02:59.374Z,0
2018-02-21T05:04:08.717Z,0
2018-02-21T05:05:17.516Z,0
2018-02-21T05:06:26.250Z,0
2018-02-21T05:07:35.204Z,0
2018-02-21T05:08:44.405Z,0
2018-02-21T05:09:53.464Z,0
2018-02-21T05:11:02.708Z,0
2018-02-21T05:12:11.978Z,0
2018-02-21T05:13:21.243Z,0
2018-02-21T05:14:30.471Z,0
2018-02-21T05:15:39.694Z,0
2018-02-21T05:16:48.375Z,0
2018-02-21T05:17:57.056Z,0
2018-02-21T05:19:06.114Z,0
2018-02-21T05:20:15.339Z,0
2018-02-21T05:21:24.866Z,0
2018-02-21T05:22:33.924Z,0
2018-02-21T05:23:42.914Z,0
2018-02-21T05:24:51.690Z,0
2018-02-21T05:26:00.897Z,0
2018-02-21T05:27:10.116Z,0
2018-02-21T05:28:19.050Z,0
2018-02-21T05:29:28.016Z,0
2018-02-21T05:30:37.257Z,0
2018-02-21T05:31:46.255Z,0
2018-02-21T05:32:54.944Z,0
2018-02-21T05:34:04.162Z,0
2018-02-21T05:35:13.665Z,0
2018-02-21T05:36:23.198Z,0
2018-02-21T05:37:32.430Z,0
2018-02-21T05:38:41.373Z,0
2018-02-21T05:39:50.605Z,0
2018-02-21T05:40:59.855Z,0
2018-02-21T05:42:08.898Z,0
2018-02-21T05:43:18.665Z,0
2018-02-21T05:44:28.213Z,0
2018-02-21T05:45:37.248Z,0
2018-02-21T05:46:46.467Z,0
2018-02-21T05:47:55.447Z,0
2018-02-21T05:49:04.133Z,0
2018-02-21T05:50:13.362Z,0
2018-02-21T05:51:22.318Z,0
2018-02-21T05:52:31.295Z,0
2018-02-21T05:53:40.004Z,0
2018-02-21T05:54:48.979Z,0
2018-02-21T05:55:57.951Z,0
2018-02-21T05:57:06.958Z,0
2018-02-21T05:58:16.440Z,0
2018-02-21T05:59:25.389Z,0
2018-02-21T06:00:34.857Z,0
2018-02-21T06:01:43.546Z,0
2018-02-21T06:02:52.515Z,0
2018-02-21T06:04:01.474Z,0
2018-02-21T06:05:10.777Z,0
2018-02-21T06:06:19.418Z,0
2018-02-21T06:07:28.384Z,4
2018-02-21T06:08:37.670Z,0
2018-02-21T06:09:46.940Z,0
2018-02-21T06:10:55.923Z,4
2018-02-21T06:12:04.908Z,4
2018-02-21T06:13:14.139Z,4
2018-02-21T06:14:23.199Z,4
2018-02-21T06:15:32.247Z,4
2018-02-21T06:16:41.283Z,8
2018-02-21T06:17:50.253Z,8
2018-02-21T06:18:59.531Z,8
2018-02-21T06:20:08.799Z,12
2018-02-21T06:21:18.063Z,12
2018-02-21T06:22:28.097Z,16
2018-02-21T06:23:37.314Z,20
2018-02-21T06:24:46.544Z,24
2018-02-21T06:25:55.872Z,28
2018-02-21T06:27:04.918Z,32
2018-02-21T06:28:13.618Z,32
2018-02-21T06:29:22.597Z,36
2018-02-21T06:30:31.583Z,48
2018-02-21T06:31:40.876Z,48
2018-02-21T06:32:49.828Z,52
2018-02-21T06:33:59.570Z,60
2018-02-21T06:35:09.064Z,68
2018-02-21T06:36:18.266Z,76
2018-02-21T06:37:27.258Z,80
2018-02-21T06:38:36.586Z,88
2018-02-21T06:39:45.794Z,92
2018-02-21T06:40:54.469Z,104
2018-02-21T06:42:03.431Z,112
2018-02-21T06:43:12.727Z,120
2018-02-21T06:44:22.012Z,128
2018-02-21T06:45:30.954Z,136
2018-02-21T06:46:39.763Z,148
2018-02-21T06:47:49.578Z,160
2018-02-21T06:48:59.400Z,168
2018-02-21T06:50:08.730Z,176
2018-02-21T06:51:17.746Z,188
2018-02-21T06:52:27.260Z,196
2018-02-21T06:53:36.734Z,196
2018-02-21T06:54:45.739Z,212
2018-02-21T06:55:55.261Z,224
2018-02-21T06:57:05.055Z,228
2018-02-21T06:58:14.590Z,232
2018-02-21T06:59:23.342Z,240
2018-02-21T07:00:32.864Z,256
2018-02-21T07:01:42.579Z,272
2018-02-21T07:02:51.560Z,292
2018-02-21T07:04:00.838Z,324
2018-02-21T07:05:10.599Z,360
2018-02-21T07:06:20.126Z,400
2018-02-21T07:07:29.389Z,428
2018-02-21T07:08:38.632Z,440
2018-02-21T07:09:47.317Z,468
2018-02-21T07:10:56.564Z,508
2018-02-21T07:12:05.804Z,552
2018-02-21T07:13:14.747Z,584
2018-02-21T07:14:24.019Z,612
2018-02-21T07:15:33.003Z,636
2018-02-21T07:16:42.301Z,652
2018-02-21T07:17:51.251Z,668
2018-02-21T07:19:00.484Z,676
2018-02-21T07:20:09.725Z,696
2018-02-21T07:21:18.446Z,720
2018-02-21T07:22:27.697Z,744
2018-02-21T07:23:37.438Z,760
2018-02-21T07:24:46.390Z,780
2018-02-21T07:25:55.675Z,808
2018-02-21T07:27:04.896Z,832
2018-02-21T07:28:13.590Z,852
2018-02-21T07:29:22.588Z,868
2018-02-21T07:30:31.627Z,884
2018-02-21T07:31:40.600Z,896
2018-02-21T07:32:49.846Z,924
2018-02-21T07:33:59.337Z,940
2018-02-21T07:35:08.885Z,960
2018-02-21T07:36:18.090Z,984
2018-02-21T07:37:27.445Z,1012
2018-02-21T07:38:36.490Z,1032
2018-02-21T07:39:45.998Z,1052
2018-02-21T07:40:55.325Z,1076
2018-02-21T07:42:04.610Z,1108
2018-02-21T07:43:13.363Z,1136
2018-02-21T07:44:22.888Z,1160
2018-02-21T07:45:31.896Z,1172
2018-02-21T07:46:40.601Z,1188
2018-02-21T07:47:50.386Z,1184
2018-02-21T07:48:59.357Z,1192
2018-02-21T07:50:08.335Z,1204
2018-02-21T07:51:17.369Z,1212
2018-02-21T07:52:26.063Z,1224
2018-02-21T07:53:34.797Z,1244
2018-02-21T07:54:44.055Z,1260
2018-02-21T07:55:52.771Z,1280
2018-02-21T07:57:01.760Z,1304
2018-02-21T07:58:10.748Z,1320
2018-02-21T07:59:19.704Z,1336
2018-02-21T08:00:28.721Z,1336
2018-02-21T08:01:38.222Z,1332
2018-02-21T08:02:47.460Z,1332
2018-02-21T08:03:56.160Z,1344
2018-02-21T08:05:05.381Z,1352
2018-02-21T08:06:14.077Z,1368
2018-02-21T08:07:23.326Z,1380
2018-02-21T08:08:32.376Z,1388
2018-02-21T08:09:41.357Z,1400
2018-02-21T08:10:50.041Z,1408
2018-02-21T08:11:58.992Z,1416
2018-02-21T08:13:07.965Z,1424
2018-02-21T08:14:16.947Z,1432
2018-02-21T08:15:26.804Z,1440
2018-02-21T08:16:35.779Z,1444
2018-02-21T08:17:45.001Z,1456
2018-02-21T08:18:54.254Z,1472
2018-02-21T08:20:03.757Z,1480
2018-02-21T08:21:12.974Z,1480
2018-02-21T08:22:22.504Z,1484
2018-02-21T08:23:31.281Z,1500
2018-02-21T08:24:40.267Z,1508
2018-02-21T08:25:49.257Z,1504
2018-02-21T08:26:57.973Z,1504
2018-02-21T08:28:07.325Z,1516
2018-02-21T08:29:17.457Z,1524
2018-02-21T08:30:26.416Z,1532
2018-02-21T08:31:35.954Z,1540
2018-02-21T08:32:45.616Z,1572
2018-02-21T08:33:55.144Z,1580
2018-02-21T08:35:04.369Z,1580
2018-02-21T08:36:13.088Z,1596
2018-02-21T08:37:22.229Z,1612
2018-02-21T08:38:31.193Z,1608
2018-02-21T08:39:40.223Z,1608
2018-02-21T08:40:49.183Z,1608
2018-02-21T08:41:58.950Z,1604
2018-02-21T08:43:07.906Z,1616
2018-02-21T08:44:17.676Z,1600
2018-02-21T08:45:27.170Z,1572
2018-02-21T08:46:36.180Z,1572
2018-02-21T08:47:45.139Z,1560
2018-02-21T08:48:54.387Z,1548
2018-02-21T08:50:03.352Z,1564
2018-02-21T08:51:12.097Z,1580
2018-02-21T08:52:21.608Z,1588
2018-02-21T08:53:30.883Z,1608
2018-02-21T08:54:39.589Z,1624
2018-02-21T08:55:49.070Z,1588
2018-02-21T08:56:57.759Z,1596
2018-02-21T08:58:07.052Z,1592
2018-02-21T08:59:15.736Z,1584
2018-02-21T09:00:24.692Z,1596
2018-02-21T09:01:33.668Z,1632
2018-02-21T09:02:42.946Z,1648
2018-02-21T09:03:51.648Z,1692
2018-02-21T09:05:00.611Z,1684
2018-02-21T09:06:09.838Z,1700
2018-02-21T09:07:19.086Z,1704
2018-02-21T09:08:28.867Z,1716
2018-02-21T09:09:37.568Z,1716
2018-02-21T09:10:46.292Z,1708
2018-02-21T09:11:55.231Z,1716
2018-02-21T09:13:04.465Z,1708
2018-02-21T09:14:13.956Z,1668
2018-02-21T09:15:23.466Z,1612
2018-02-21T09:16:32.776Z,1604
2018-02-21T09:17:42.339Z,1592
2018-02-21T09:18:51.828Z,1608
2018-02-21T09:20:00.786Z,1632
2018-02-21T09:21:10.273Z,1632
2018-02-21T09:22:19.498Z,1688
2018-02-21T09:23:29.109Z,1704
2018-02-21T09:24:37.812Z,1764
2018-02-21T09:25:47.576Z,1720
2018-02-21T09:26:57.049Z,1740
2018-02-21T09:28:06.268Z,1716
2018-02-21T09:29:15.528Z,1500
2018-02-21T09:30:24.529Z,1472
2018-02-21T09:31:34.036Z,1540
2018-02-21T09:32:43.509Z,1488
2018-02-21T09:33:52.734Z,1632
2018-02-21T09:35:02.014Z,1664
2018-02-21T09:36:11.504Z,1612
2018-02-21T09:37:20.718Z,1560
2018-02-21T09:38:29.413Z,1476
2018-02-21T09:39:38.377Z,1532
2018-02-21T09:40:47.076Z,1544
2018-02-21T09:41:56.301Z,1540
2018-02-21T09:43:05.259Z,1516
2018-02-21T09:44:14.760Z,1500
2018-02-21T09:45:24.036Z,1496
2018-02-21T09:46:33.055Z,1492
2018-02-21T09:47:42.036Z,1480
2018-02-21T09:48:51.532Z,1476
2018-02-21T09:50:00.771Z,1444
2018-02-21T09:51:10.044Z,1408
2018-02-21T09:52:19.557Z,1432
2018-02-21T09:53:28.249Z,1424
2018-02-21T09:54:36.987Z,1416
2018-02-21T09:55:45.936Z,1420
2018-02-21T09:56:55.699Z,1412
2018-02-21T09:58:04.659Z,1404
2018-02-21T09:59:13.353Z,1400
2018-02-21T10:00:22.291Z,1408
2018-02-21T10:01:31.782Z,1420
2018-02-21T10:02:41.009Z,1420
2018-02-21T10:03:50.500Z,1428
2018-02-21T10:04:59.450Z,1436
2018-02-21T10:06:08.700Z,1444
2018-02-21T10:07:17.653Z,1452
2018-02-21T10:08:26.887Z,1448
2018-02-21T10:09:36.127Z,1416
2018-02-21T10:10:44.818Z,1384
2018-02-21T10:11:53.514Z,1396
2018-02-21T10:13:02.475Z,1392
2018-02-21T10:14:11.953Z,1396
2018-02-21T10:15:21.448Z,1400
2018-02-21T10:16:30.653Z,1388
2018-02-21T10:17:39.341Z,1384
2018-02-21T10:18:48.022Z,1384
2018-02-21T10:19:57.496Z,1384
2018-02-21T10:21:06.203Z,1380
2018-02-21T10:22:15.151Z,1376
2018-02-21T10:23:24.361Z,1360
2018-02-21T10:24:33.336Z,1364
2018-02-21T10:25:42.070Z,1356
2018-02-21T10:26:51.032Z,1364
2018-02-21T10:28:00.290Z,1372
2018-02-21T10:29:09.249Z,1356
2018-02-21T10:30:18.460Z,1340
2018-02-21T10:31:27.160Z,1320
2018-02-21T10:32:35.853Z,1312
2018-02-21T10:33:44.874Z,1312
2018-02-21T10:34:53.834Z,1300
2018-02-21T10:36:03.059Z,1300
2018-02-21T10:37:12.302Z,1296
2018-02-21T10:38:21.012Z,1296
2018-02-21T10:39:30.233Z,1280
2018-02-21T10:40:39.473Z,1272
2018-02-21T10:41:48.448Z,1276
2018-02-21T10:42:57.189Z,1272
2018-02-21T10:44:06.166Z,1256
2018-02-21T10:45:15.122Z,1232
2018-02-21T10:46:24.108Z,1228
2018-02-21T10:47:33.051Z,1232
2018-02-21T10:48:42.300Z,1236
2018-02-21T10:49:51.551Z,1244
2018-02-21T10:51:00.229Z,1224
2018-02-21T10:52:09.458Z,1208
2018-02-21T10:53:18.743Z,1192
2018-02-21T10:54:27.950Z,1196
2018-02-21T10:55:37.166Z,1200
2018-02-21T10:56:46.931Z,1200
2018-02-21T10:57:56.427Z,1196
2018-02-21T10:59:05.636Z,1204
2018-02-21T11:00:14.587Z,1220
2018-02-21T11:01:23.860Z,1228
2018-02-21T11:02:32.543Z,1224
2018-02-21T11:03:41.529Z,1216
2018-02-21T11:04:50.213Z,1212
2018-02-21T11:05:59.438Z,1196
2018-02-21T11:07:08.439Z,1172
2018-02-21T11:08:17.456Z,1156
2018-02-21T11:09:27.215Z,1140
2018-02-21T11:10:36.189Z,1136
2018-02-21T11:11:45.402Z,1144
2018-02-21T11:12:54.362Z,1148
2018-02-21T11:14:03.048Z,1148
2018-02-21T11:15:12.010Z,1136
2018-02-21T11:16:20.957Z,1124
2018-02-21T11:17:29.924Z,1112
2018-02-21T11:18:39.430Z,1104
2018-02-21T11:19:48.900Z,1104
2018-02-21T11:20:57.834Z,1104
2018-02-21T11:22:06.803Z,1100
2018-02-21T11:23:16.764Z,1096
2018-02-21T11:24:25.480Z,1088
2018-02-21T11:25:35.060Z,1080
2018-02-21T11:26:44.466Z,1084
2018-02-21T11:27:54.238Z,1080
2018-02-21T11:29:04.000Z,1080
2018-02-21T11:30:12.992Z,1100
2018-02-21T11:31:22.213Z,1108
2018-02-21T11:32:31.464Z,1112
2018-02-21T11:33:40.156Z,1120
2018-02-21T11:34:49.288Z,1120
2018-02-21T11:35:58.869Z,1116
2018-02-21T11:37:07.578Z,1116
2018-02-21T11:38:16.553Z,1108
2018-02-21T11:39:25.540Z,1104
2018-02-21T11:40:34.518Z,1108
2018-02-21T11:41:43.268Z,1124
2018-02-21T11:42:52.750Z,1120
2018-02-21T11:44:01.460Z,1116
2018-02-21T11:45:10.671Z,1112
2018-02-21T11:46:20.022Z,1096
2018-02-21T11:47:29.015Z,1076
2018-02-21T11:48:37.966Z,1064
2018-02-21T11:49:47.230Z,1056
2018-02-21T11:50:56.562Z,1052
2018-02-21T11:52:05.801Z,1060
2018-02-21T11:53:14.524Z,1064
2018-02-21T11:54:23.752Z,1068
2018-02-21T11:55:33.234Z,1064
2018-02-21T11:56:42.197Z,1060
2018-02-21T11:57:51.476Z,1068
2018-02-21T11:59:00.532Z,1064
2018-02-21T12:00:09.798Z,1068
2018-02-21T12:01:18.558Z,1076
2018-02-21T12:02:28.049Z,1068
2018-02-21T12:03:37.277Z,1064
2018-02-21T12:04:46.032Z,1056
2018-02-21T12:05:55.256Z,1052
2018-02-21T12:07:04.725Z,1044
2018-02-21T12:08:13.680Z,1024
2018-02-21T12:09:22.636Z,1016
2018-02-21T12:10:32.242Z,1012
2018-02-21T12:11:41.744Z,1000
2018-02-21T12:12:50.424Z,996
2018-02-21T12:13:59.636Z,992
2018-02-21T12:15:08.313Z,988
2018-02-21T12:16:17.530Z,988
2018-02-21T12:17:26.731Z,1004
2018-02-21T12:18:35.428Z,1004
2018-02-21T12:19:44.661Z,1000
2018-02-21T12:20:53.414Z,992
2018-02-21T12:22:02.364Z,972
2018-02-21T12:23:11.865Z,960
2018-02-21T12:24:20.822Z,948
2018-02-21T12:25:30.108Z,940
2018-02-21T12:26:39.073Z,940
2018-02-21T12:27:48.072Z,936
2018-02-21T12:28:57.317Z,932
2018-02-21T12:30:06.567Z,928
2018-02-21T12:31:15.258Z,916
2018-02-21T12:32:24.521Z,908
2018-02-21T12:33:33.481Z,904
2018-02-21T12:34:42.432Z,900
2018-02-21T12:35:51.370Z,904
2018-02-21T12:37:00.674Z,900
2018-02-21T12:38:09.603Z,900
2018-02-21T12:39:18.562Z,900
2018-02-21T12:40:27.321Z,900
2018-02-21T12:41:36.314Z,896
2018-02-21T12:42:45.307Z,896
2018-02-21T12:43:54.570Z,888
2018-02-21T12:45:03.808Z,880
2018-02-21T12:46:12.491Z,884
2018-02-21T12:47:21.779Z,884
2018-02-21T12:48:30.725Z,888
2018-02-21T12:49:39.716Z,888
2018-02-21T12:50:48.440Z,884
2018-02-21T12:51:57.639Z,880
2018-02-21T12:53:06.571Z,880
2018-02-21T12:54:15.625Z,876
2018-02-21T12:55:24.943Z,872
2018-02-21T12:56:33.857Z,872
2018-02-21T12:57:42.583Z,872
2018-02-21T12:58:52.093Z,868
2018-02-21T13:00:01.051Z,868
2018-02-21T13:01:10.018Z,860
2018-02-21T13:02:19.254Z,856
2018-02-21T13:03:28.253Z,852
2018-02-21T13:04:37.223Z,856
2018-02-21T13:05:46.757Z,852
2018-02-21T13:06:55.516Z,852
2018-02-21T13:08:04.482Z,856
2018-02-21T13:09:13.440Z,856
2018-02-21T13:10:22.713Z,852
2018-02-21T13:11:31.930Z,848
2018-02-21T13:12:41.150Z,840
2018-02-21T13:13:50.437Z,844
2018-02-21T13:14:59.392Z,840
2018-02-21T13:16:08.613Z,840
2018-02-21T13:17:17.830Z,840
2018-02-21T13:18:26.823Z,836
2018-02-21T13:19:36.050Z,836
2018-02-21T13:20:45.778Z,836
2018-02-21T13:21:54.727Z,832
2018-02-21T13:23:03.699Z,832
2018-02-21T13:24:12.677Z,832
2018-02-21T13:25:21.648Z,832
2018-02-21T13:26:30.596Z,832
2018-02-21T13:27:39.545Z,836
2018-02-21T13:28:48.764Z,828
2018-02-21T13:29:57.746Z,836
2018-02-21T13:31:06.734Z,828
2018-02-21T13:32:15.694Z,832
2018-02-21T13:33:24.640Z,828
2018-02-21T13:34:33.628Z,820
2018-02-21T13:35:42.320Z,820
2018-02-21T13:36:51.285Z,816
2018-02-21T13:38:00.497Z,816
2018-02-21T13:39:09.193Z,816
2018-02-21T13:40:17.891Z,816
2018-02-21T13:41:27.130Z,816
2018-02-21T13:42:36.114Z,812
2018-02-21T13:43:45.388Z,812
2018-02-21T13:44:54.082Z,812
2018-02-21T13:46:03.337Z,808
2018-02-21T13:47:12.852Z,812
2018-02-21T13:48:22.094Z,812
2018-02-21T13:49:31.053Z,804
2018-02-21T13:50:40.052Z,796
2018-02-21T13:51:49.273Z,792
2018-02-21T13:52:58.906Z,792
2018-02-21T13:54:07.981Z,796
2018-02-21T13:55:17.510Z,788
2018-02-21T13:56:27.286Z,784
2018-02-21T13:57:36.249Z,780
2018-02-21T13:58:45.777Z,780
2018-02-21T13:59:55.013Z,780
2018-02-21T14:01:04.521Z,776
2018-02-21T14:02:13.566Z,772
2018-02-21T14:03:22.816Z,772
2018-02-21T14:04:31.808Z,768
2018-02-21T14:05:41.053Z,768
2018-02-21T14:06:50.474Z,768
2018-02-21T14:07:59.716Z,764
2018-02-21T14:09:09.458Z,760
2018-02-21T14:10:18.952Z,756
2018-02-21T14:11:27.948Z,756
2018-02-21T14:12:36.968Z,752
2018-02-21T14:13:45.747Z,748
2018-02-21T14:14:54.997Z,744
2018-02-21T14:16:04.088Z,744
2018-02-21T14:17:13.435Z,740
2018-02-21T14:18:22.519Z,732
2018-02-21T14:19:32.049Z,728
2018-02-21T14:20:41.279Z,728
2018-02-21T14:21:50.297Z,724
2018-02-21T14:22:59.655Z,720
2018-02-21T14:24:08.994Z,724
2018-02-21T14:25:18.329Z,724
2018-02-21T14:26:27.122Z,720
2018-02-21T14:27:35.887Z,720
2018-02-21T14:28:44.904Z,712
2018-02-21T14:29:53.684Z,704
2018-02-21T14:31:03.529Z,700
2018-02-21T14:32:12.528Z,700
2018-02-21T14:33:21.518Z,696
2018-02-21T14:34:30.536Z,696
2018-02-21T14:35:39.810Z,692
2018-02-21T14:36:49.463Z,688
2018-02-21T14:37:58.489Z,692
2018-02-21T14:39:07.250Z,688
2018-02-21T14:40:16.219Z,688
2018-02-21T14:41:25.960Z,688
2018-02-21T14:42:34.913Z,688
2018-02-21T14:43:43.890Z,684
2018-02-21T14:44:52.580Z,680
2018-02-21T14:46:02.072Z,676
2018-02-21T14:47:11.349Z,672
2018-02-21T14:48:20.570Z,668
2018-02-21T14:49:29.954Z,664
2018-02-21T14:50:39.217Z,664
2018-02-21T14:51:47.936Z,664
2018-02-21T14:52:56.646Z,660
2018-02-21T14:54:05.584Z,660
2018-02-21T14:55:14.559Z,652
2018-02-21T14:56:23.566Z,652
2018-02-21T14:57:32.559Z,648
2018-02-21T14:58:41.331Z,644
2018-02-21T14:59:50.299Z,644
2018-02-21T15:00:59.533Z,640
2018-02-21T15:02:08.497Z,636
2018-02-21T15:03:17.751Z,632
2018-02-21T15:04:26.949Z,628
2018-02-21T15:05:35.639Z,624
2018-02-21T15:06:44.873Z,620
2018-02-21T15:07:53.658Z,616
2018-02-21T15:09:02.368Z,612
2018-02-21T15:10:11.055Z,612
2018-02-21T15:11:20.263Z,608
2018-02-21T15:12:29.506Z,604
2018-02-21T15:13:38.487Z,600
2018-02-21T15:14:47.689Z,600
2018-02-21T15:15:56.636Z,596
2018-02-21T15:17:05.606Z,592
2018-02-21T15:18:14.526Z,588
2018-02-21T15:19:23.488Z,584
2018-02-21T15:20:32.724Z,576
2018-02-21T15:21:41.690Z,576
2018-02-21T15:22:50.640Z,576
2018-02-21T15:23:59.587Z,572
2018-02-21T15:25:08.813Z,564
2018-02-21T15:26:18.075Z,564
2018-02-21T15:27:27.039Z,560
2018-02-21T15:28:36.524Z,556
2018-02-21T15:29:45.255Z,548
2018-02-21T15:30:54.208Z,548
2018-02-21T15:32:03.151Z,544
2018-02-21T15:33:12.417Z,540
2018-02-21T15:34:21.895Z,536
2018-02-21T15:35:31.365Z,524
2018-02-21T15:36:40.311Z,524
2018-02-21T15:37:49.376Z,520
2018-02-21T15:38:58.595Z,512
2018-02-21T15:40:07.293Z,508
2018-02-21T15:41:16.530Z,504
2018-02-21T15:42:25.466Z,500
2018-02-21T15:43:34.696Z,492
2018-02-21T15:44:43.935Z,488
2018-02-21T15:45:52.933Z,484
2018-02-21T15:47:02.421Z,480
2018-02-21T15:48:11.673Z,476
2018-02-21T15:49:20.899Z,472
2018-02-21T15:50:30.190Z,468
2018-02-21T15:51:39.458Z,464
2018-02-21T15:52:48.743Z,452
2018-02-21T15:53:57.700Z,448
2018-02-21T15:55:06.901Z,444
2018-02-21T15:56:16.115Z,440
2018-02-21T15:57:25.593Z,432
2018-02-21T15:58:34.832Z,428
2018-02-21T15:59:44.076Z,420
2018-02-21T16:00:53.365Z,416
2018-02-21T16:02:02.378Z,408
2018-02-21T16:03:11.638Z,404
2018-02-21T16:04:20.877Z,396
2018-02-21T16:05:30.464Z,392
2018-02-21T16:06:40.056Z,380
2018-02-21T16:07:49.034Z,376
2018-02-21T16:08:58.016Z,368
2018-02-21T16:10:07.022Z,360